Portada
METAR-TAF:

METAR-TAF

Aeroports :

Udon Thani, Tailàndia

latitud: 17-23N, longitud: 102-48E, altitud: 177 m

Observació

L'informe es va fer fa 22 minuts, a les 07:00 UTC
Vent 3 kt amb direcció variable
Temperatura 35°C
Humitat 47%
Pressió 1007 hPa
Visibilitat 10 km o més
Núvols disperses a una alçada de 4500 ft

METAR: VTUD 230700Z VRB03KT 9999 SCT045 35/22 Q1007 NOSIG

Hora: 14:22 (07:22 UTC)

Pronòstic

L'informe es va fer fa 2 hores i 22 minuts, a les 05:00 UTC
Pronòstic vàlid del 23 a les 06 UTC al 24 a les 06 UTC
Vent 4 kt del Oest/Sud-Oest
Visibilitat 10 km o més
Escasses núvols a una alçada de 2500 ft

TAF: VTUD 230500Z 2306/2406 24004KT 9999 FEW025

Observacions i pronòstics meteorològics de més de 4000 aeroports (METAR i TAF).

Les estacions disponibles són els punts grocs i vermells al mapa.

Posi el ratolí al punt desitjat per veure el nom de l'estació.

Feu clic per veure les observacions i els pronòstics meteorològics.

Per canviar el mapa: feu clic els botons verds amb una creu de color negre per apropar; al botó verd amb un guió per allunyar la imatge; o en les fletxes verdes per a mapes adjacents.


METAR-TAF: